Terminal Aerodrome Forecast
Issued by NWS Charleston, WV

Current Version | Previous Version | Text Only | Print | Product List | Glossary Off
Versions: 1 2 3 4 5 6 7 8 9 10 11 12 13 14 15 16 17 18 19 20 21 22 23

000
FTUS41 KRLX 141700
TAFHTS
TAF
KHTS 141726Z 1418/1518 21018G27KT P6SM -SHRA OVC050
     FM142300 20012G19KT P6SM OVC030
     FM150100 19009KT P6SM VCTS OVC025CB
     FM150300 19008KT 3SM -SHRA VCTS OVC020CB
     FM150500 19007KT 3SM -SHRA VCTS OVC015CB
     FM150600 19006KT 2SM -SHRA OVC015
     FM150800 28011KT 2SM -SHRA OVC010
     FM151000 32013KT 2SM -SHRA OVC010
     FM151200 33013KT 3SM -SHRA OVC008
     FM151400 32012KT P6SM OVC008
     FM151600 31012G17KT P6SM BKN010
     FM151700 32011G16KT P6SM BKN020=

USA.gov is the U.S. government's official web portal to all federal, state and local government web resources and services.